Messwerte Philipsburg / St.Maarten

Temperatur

Temperatur
°C
1573660800 12.00 12.00 31
1573664400 13.00 13.00 31
1573668000 14.00 14.00 30
1573671600 15.00 15.00 31
1573675200 16.00 16.00 30
1573678800 17.00 17.00 29
1573682400 18.00 18.00 28
1573686000 19.00 19.00 28
1573689600 20.00 20.00 28
1573693200 21.00 21.00 28
1573696800 22.00 22.00 28
1573700400 23.00 23.00 28
1573704000 0.00 0.00 27
1573707600 1.00 1.00
1573711200 2.00 2.00
1573714800 3.00 3.00 27
1573718400 4.00 4.00 27
1573722000 5.00 5.00 27
1573725600 6.00 6.00
1573729200 7.00 7.00 28
1573732800 8.00 8.00 29
1573736400 9.00 9.00 30
1573740000 10.00 10.00 30
1573743600 11.00 11.00 31

Aktuellste Messwerte

Wettercharakter
Wetter: freundlich
Temperatur
31 °C
Feuchtigkeit
60 %
Wind
20 km/hWindrichtung: Nordost
Luftdruck
1016 hPa
Messzeit: 14. November 2019, 11.00Datenquelle: METAR

Weitere Messstationen in der Nähe

Messstation Temperatur Entfernung
The Valley/Anguilla 29 °C 20 km
Oranjestad / St.Eustatius 31 °C 63 km
Golden Rock - 94 km
Road Town 31 °C 156 km
Gerald's/Montserrat 28 °C 169 km
Saint John’s / Antigua 30 °C 174 km
Christiansted/Saint Croix 31 °C 181 km

Wind

Windrichtung Böen Mittelwind
° km/h km/h
1573660800 12.00 11.00 - 12.00 100° 15
1573664400 13.00 12.00 - 13.00 110° 20
1573668000 14.00 13.00 - 14.00 90° 15
1573671600 15.00 14.00 - 15.00 90° 15
1573675200 16.00 15.00 - 16.00 90° 15
1573678800 17.00 16.00 - 17.00 90° 15
1573682400 18.00 17.00 - 18.00 70° 15
1573686000 19.00 18.00 - 19.00 60° 10
1573689600 20.00 19.00 - 20.00 70° 10
1573693200 21.00 20.00 - 21.00 60° 10
1573696800 22.00 21.00 - 22.00 70° 15
1573700400 23.00 22.00 - 23.00 50° 10
1573704000 0.00 23.00 - 0.00 60° 10
1573707600 1.00 0.00 - 1.00
1573711200 2.00 1.00 - 2.00
1573714800 3.00 2.00 - 3.00 50° 10
1573718400 4.00 3.00 - 4.00 50° 15
1573722000 5.00 4.00 - 5.00 50° 10
1573725600 6.00 5.00 - 6.00
1573729200 7.00 6.00 - 7.00 50° 15
1573732800 8.00 7.00 - 8.00 60° 20
1573736400 9.00 8.00 - 9.00 70° 20
1573740000 10.00 9.00 - 10.00 50° 20
1573743600 11.00 10.00 - 11.00 50° 20

Ihre Wetterstation

Fehlt Ihre Wetterstation auf unserem Portal?

Schreiben Sie an network@meteonews.ch

Klima

Wann ist es am wärmsten? Wann regnet es am wenigsten? Unsere Klimadaten geben Auskunft.